Time;durP1;ratioP1;P1;durP2;ratioP2;P2;SDS_P1;SDS_P2;PMS_P1;PMS_P2;Temp;Humidity;BMP_temperature;BMP_pressure;BME280_temperature;BME280_humidity;BME280_pressure;Samples;Min_cycle;Max_cycle;Signal;HPM_P1;HPM_P2
2021/10/29 00:00:16;;;;;;;90.07;53.90;;;;;;;5.47;82.50;99505.73;2170742;82;21692;-80
2021/10/29 00:03:18;;;;;;;80.40;51.50;;;;;;;5.45;82.72;99508.66;2162386;82;21007;-82
2021/10/29 00:06:19;;;;;;;92.17;54.57;;;;;;;5.39;82.27;99509.28;2170978;81;20937;-82
2021/10/29 00:09:19;;;;;;;81.67;51.47;;;;;;;5.36;82.34;99511.75;2171785;81;20964;-81
2021/10/29 00:12:21;;;;;;;85.17;52.13;;;;;;;5.31;82.24;99501.60;2171715;81;20988;-82
2021/10/29 00:15:22;;;;;;;126.20;72.70;;;;;;;5.27;82.48;99497.52;2172315;81;21400;-80
2021/10/29 00:18:22;;;;;;;85.47;54.27;;;;;;;5.23;82.61;99491.73;2170502;82;20937;-82
2021/10/29 00:21:23;;;;;;;85.20;53.23;;;;;;;5.21;82.57;99496.84;2170709;81;20964;-82
2021/10/29 00:24:23;;;;;;;87.00;53.57;;;;;;;5.22;82.70;99488.67;2170669;81;20946;-82
2021/10/29 00:27:24;;;;;;;87.67;52.80;;;;;;;5.22;82.74;99489.97;2170386;81;21012;-82
2021/10/29 00:30:24;;;;;;;85.53;52.27;;;;;;;5.20;82.69;99489.91;2170514;81;21016;-80
2021/10/29 00:33:24;;;;;;;89.67;55.27;;;;;;;5.18;82.75;99490.63;2170685;81;21403;-81
2021/10/29 00:36:25;;;;;;;88.80;56.80;;;;;;;5.15;82.65;99486.20;2170214;81;20973;-81
2021/10/29 00:39:25;;;;;;;89.33;51.83;;;;;;;5.15;82.70;99484.02;2170475;81;20953;-82
2021/10/29 00:42:26;;;;;;;90.67;54.80;;;;;;;5.17;82.75;99486.27;2170938;82;20922;-80
2021/10/29 00:45:26;;;;;;;87.47;50.70;;;;;;;5.13;82.51;99478.78;2171110;81;20937;-79
2021/10/29 00:48:27;;;;;;;82.50;50.90;;;;;;;5.09;82.69;99475.17;2169654;81;20964;-81
2021/10/29 00:51:28;;;;;;;87.03;52.67;;;;;;;5.06;83.03;99477.63;2169848;81;20976;-83
2021/10/29 00:54:28;;;;;;;91.10;55.27;;;;;;;5.04;82.57;99471.50;2170510;81;21346;-80
2021/10/29 00:57:29;;;;;;;88.23;53.10;;;;;;;5.02;82.55;99466.67;2170542;81;21407;-82
2021/10/29 01:00:29;;;;;;;89.37;53.57;;;;;;;5.02;82.57;99469.66;2170813;82;21426;-81
2021/10/29 01:03:30;;;;;;;80.40;50.80;;;;;;;5.01;82.47;99474.36;2170693;81;20956;-82
2021/10/29 01:06:32;;;;;;;79.57;51.90;;;;;;;4.99;82.51;99476.00;2170976;81;20973;-81
2021/10/29 01:09:33;;;;;;;83.03;51.00;;;;;;;4.97;82.43;99477.23;2171094;81;20945;-82
2021/10/29 01:12:33;;;;;;;84.00;54.00;;;;;;;4.95;82.33;99478.86;2170865;81;21036;-82
2021/10/29 01:15:34;;;;;;;86.00;51.27;;;;;;;4.94;82.26;99470.62;2170829;81;20960;-81
2021/10/29 01:18:34;;;;;;;85.67;50.37;;;;;;;4.93;82.26;99465.38;2171022;81;20945;-81
2021/10/29 01:21:35;;;;;;;87.03;51.47;;;;;;;4.89;82.36;99463.48;2170801;81;20996;-82
2021/10/29 01:24:36;;;;;;;103.23;50.87;;;;;;;4.84;82.19;99457.22;2170636;81;20937;-80
2021/10/29 01:27:36;;;;;;;88.70;52.53;;;;;;;4.77;82.32;99462.13;2171033;81;20976;-82
2021/10/29 01:30:37;;;;;;;81.77;51.63;;;;;;;4.74;82.35;99458.11;2170574;81;21020;-82
2021/10/29 01:33:37;;;;;;;114.90;53.33;;;;;;;4.72;82.43;99460.15;2170676;81;21004;-81
2021/10/29 01:36:38;;;;;;;82.80;52.70;;;;;;;4.70;82.66;99463.08;2170189;81;21419;-80
2021/10/29 01:39:39;;;;;;;93.47;53.70;;;;;;;4.69;82.62;99458.72;2170727;81;20981;-80
2021/10/29 01:42:40;;;;;;;82.23;50.67;;;;;;;4.70;82.84;99465.66;2170170;81;20971;-81
2021/10/29 01:45:40;;;;;;;97.50;52.97;;;;;;;4.68;82.72;99454.36;2169764;81;21339;-81
2021/10/29 01:48:41;;;;;;;89.27;53.77;;;;;;;4.65;82.56;99452.52;2170218;81;21009;-81
2021/10/29 01:51:41;;;;;;;78.23;50.80;;;;;;;4.63;82.66;99442.93;2170908;82;20949;-81
2021/10/29 01:54:42;;;;;;;200.37;117.90;;;;;;;4.61;82.59;99444.56;2170943;81;21379;-82
2021/10/29 01:57:42;;;;;;;90.60;56.03;;;;;;;4.58;82.46;99437.96;2170716;81;21327;-82
2021/10/29 02:00:43;;;;;;;83.03;53.00;;;;;;;4.52;82.50;99432.52;2170731;81;21068;-81
2021/10/29 02:03:44;;;;;;;80.80;50.63;;;;;;;4.49;82.40;99435.84;2170761;82;20921;-81
2021/10/29 02:06:44;;;;;;;84.27;51.63;;;;;;;4.45;82.49;99440.00;2170743;81;20973;-81
2021/10/29 02:09:45;;;;;;;92.40;52.47;;;;;;;4.42;82.54;99441.56;2170582;81;20954;-83
2021/10/29 02:12:45;;;;;;;89.20;51.13;;;;;;;4.40;82.54;99441.48;2170137;81;20940;-82
2021/10/29 02:15:47;;;;;;;151.20;58.43;;;;;;;4.38;82.43;99436.66;2169528;82;21005;-82
2021/10/29 02:18:48;;;;;;;81.63;51.27;;;;;;;4.40;82.68;99435.02;2170298;81;21065;-83
2021/10/29 02:21:48;;;;;;;96.30;52.30;;;;;;;4.38;82.51;99432.78;2171248;81;20977;-82
2021/10/29 02:24:48;;;;;;;78.03;50.03;;;;;;;4.34;82.23;99424.81;2170456;81;20989;-81
2021/10/29 02:27:49;;;;;;;79.30;50.40;;;;;;;4.27;82.09;99419.74;2170270;82;20952;-79
2021/10/29 02:30:49;;;;;;;83.50;54.17;;;;;;;4.21;82.24;99421.16;2170366;81;20988;-80
2021/10/29 02:33:50;;;;;;;98.47;52.73;;;;;;;4.18;82.41;99419.32;2170132;81;21004;-81
2021/10/29 02:36:50;;;;;;;84.40;51.17;;;;;;;4.18;82.47;99411.57;2170033;81;21336;-81
2021/10/29 02:39:52;;;;;;;73.70;47.33;;;;;;;4.17;82.37;99407.22;2170234;81;21340;-81
2021/10/29 02:42:52;;;;;;;87.33;51.07;;;;;;;4.13;82.54;99401.44;2170595;81;20933;-82
2021/10/29 02:45:53;;;;;;;80.47;50.50;;;;;;;4.08;82.87;99398.64;2170791;81;20957;-82
2021/10/29 02:48:53;;;;;;;77.17;49.30;;;;;;;4.05;83.11;99397.20;2170872;81;20976;-81
2021/10/29 02:51:54;;;;;;;83.13;55.57;;;;;;;4.05;83.02;99402.78;2170702;81;20992;-81
2021/10/29 02:54:54;;;;;;;83.90;52.17;;;;;;;4.05;83.16;99406.25;2170449;81;20960;-82
2021/10/29 02:57:55;;;;;;;88.50;54.27;;;;;;;4.08;83.15;99405.09;2169929;81;21364;-82
2021/10/29 03:00:57;;;;;;;86.93;53.10;;;;;;;4.11;83.23;99406.53;2170426;81;21451;-82
2021/10/29 03:03:57;;;;;;;86.57;55.20;;;;;;;4.13;83.02;99405.31;2169619;81;21008;-83
2021/10/29 03:06:58;;;;;;;84.50;53.60;;;;;;;4.09;82.67;99404.69;2169609;81;21328;-81
2021/10/29 03:09:59;;;;;;;77.17;49.57;;;;;;;4.01;82.18;99396.99;2170003;82;20953;-81
2021/10/29 03:12:59;;;;;;;80.27;51.17;;;;;;;3.95;82.02;99398.00;2169679;81;20984;-81
2021/10/29 03:16:00;;;;;;;85.17;51.10;;;;;;;3.87;81.90;99403.22;2169553;81;20996;-82
2021/10/29 03:19:00;;;;;;;92.27;53.23;;;;;;;3.82;82.05;99405.17;2169643;81;21008;-82
2021/10/29 03:22:00;;;;;;;79.50;48.17;;;;;;;3.79;82.13;99406.32;2169533;81;20985;-80
2021/10/29 03:25:01;;;;;;;77.13;49.37;;;;;;;3.74;81.83;99403.93;2169267;81;20973;-82
2021/10/29 03:28:01;;;;;;;74.93;47.97;;;;;;;3.69;81.79;99400.24;2169368;81;20968;-81
2021/10/29 03:31:02;;;;;;;74.83;48.30;;;;;;;3.59;81.23;99408.36;2169660;81;20988;-81
2021/10/29 03:34:02;;;;;;;75.40;48.23;;;;;;;3.54;81.46;99408.55;2169957;81;21379;-81
2021/10/29 03:37:06;;;;;;;70.83;47.23;;;;;;;3.61;81.48;99402.86;2170059;81;20980;-81
2021/10/29 03:43:25;;;;;;;76.45;48.23;;;;;;;3.44;81.45;99402.42;2161387;82;20995;-82
2021/10/29 03:46:24;;;;;;;72.57;43.97;;;;;;;3.36;81.46;99397.30;2169558;81;21000;-81
2021/10/29 03:49:39;;;;;;;77.60;46.53;;;;;;;3.33;81.44;99397.14;2170444;81;21024;-82
2021/10/29 03:52:35;;;;;;;80.47;48.37;;;;;;;3.29;81.81;99395.22;2169123;81;20996;-80
2021/10/29 03:55:35;;;;;;;79.87;49.60;;;;;;;3.30;81.89;99395.30;2168993;81;21313;-82
2021/10/29 03:58:35;;;;;;;97.63;53.67;;;;;;;3.29;82.09;99389.66;2168585;81;21033;-81
2021/10/29 04:01:35;;;;;;;76.67;50.17;;;;;;;3.32;82.44;99390.22;2168552;81;21022;-83
2021/10/29 04:04:36;;;;;;;73.60;47.53;;;;;;;3.31;82.27;99385.86;2169667;81;21371;-82
2021/10/29 04:07:37;;;;;;;80.00;49.33;;;;;;;3.27;82.04;99386.13;2169927;81;20961;-80
2021/10/29 04:10:43;;;;;;;76.53;48.90;;;;;;;3.24;82.37;99386.38;2169893;81;20949;-80
2021/10/29 04:13:44;;;;;;;78.73;48.17;;;;;;;3.24;82.56;99386.38;2169198;81;21007;-81
2021/10/29 04:16:46;;;;;;;77.78;49.93;;;;;;;3.24;82.81;99385.97;2160243;82;20996;-82
2021/10/29 04:19:47;;;;;;;78.67;46.90;;;;;;;3.26;83.18;99392.50;2169214;81;20969;-82
2021/10/29 04:22:48;;;;;;;79.97;47.80;;;;;;;3.26;83.10;99386.93;2168874;81;20961;-82
2021/10/29 04:25:48;;;;;;;71.60;46.53;;;;;;;3.24;82.98;99383.39;2168521;81;21328;-82
2021/10/29 04:28:54;;;;;;;76.37;48.57;;;;;;;3.23;83.04;99382.02;2168404;81;20956;-82
2021/10/29 04:31:51;;;;;;;73.07;49.07;;;;;;;3.18;82.95;99380.11;2167598;81;20952;-81
2021/10/29 04:34:52;;;;;;;76.53;50.03;;;;;;;3.19;83.22;99383.16;2168600;81;21696;-83
2021/10/29 04:37:53;;;;;;;74.20;49.03;;;;;;;3.20;83.50;99381.06;2168709;81;21382;-85
2021/10/29 04:40:53;;;;;;;72.17;48.03;;;;;;;3.19;83.51;99381.88;2169121;82;20971;-82
2021/10/29 04:43:54;;;;;;;80.17;48.60;;;;;;;3.20;83.52;99380.18;2169436;81;21359;-82
2021/10/29 04:46:54;;;;;;;76.10;48.73;;;;;;;3.20;83.45;99381.47;2169555;81;20944;-83
2021/10/29 04:49:55;;;;;;;116.27;50.03;;;;;;;3.19;83.37;99376.72;2169261;81;20976;-83
2021/10/29 04:52:55;;;;;;;138.57;51.77;;;;;;;3.19;83.31;99386.15;2169672;81;21008;-82
2021/10/29 04:55:56;;;;;;;95.27;50.30;;;;;;;3.21;83.45;99383.23;2169873;81;20945;-82
2021/10/29 04:58:56;;;;;;;85.80;47.13;;;;;;;3.22;83.30;99386.30;2169472;81;20972;-80
2021/10/29 05:01:57;;;;;;;96.10;49.80;;;;;;;3.20;82.97;99381.06;2169621;82;21450;-83
2021/10/29 05:04:58;;;;;;;134.40;52.63;;;;;;;3.19;82.95;99377.12;2168700;82;21340;-80
2021/10/29 05:07:58;;;;;;;109.57;49.30;;;;;;;3.20;82.96;99384.05;2169103;81;21340;-82
2021/10/29 05:10:59;;;;;;;137.17;51.70;;;;;;;3.17;82.62;99383.90;2170012;81;20909;-83
2021/10/29 05:13:59;;;;;;;79.77;46.93;;;;;;;3.10;82.61;99378.84;2170212;81;21407;-79
2021/10/29 05:17:00;;;;;;;74.57;48.27;;;;;;;3.06;82.31;99385.06;2170777;81;21003;-82
2021/10/29 05:20:00;;;;;;;64.97;44.43;;;;;;;3.02;82.28;99378.86;2172754;81;20973;-83
2021/10/29 05:23:01;;;;;;;77.33;45.83;;;;;;;3.00;82.21;99380.48;2173027;81;21403;-82
2021/10/29 05:26:01;;;;;;;72.83;44.90;;;;;;;2.94;81.83;99381.47;2172875;81;21399;-82
2021/10/29 05:29:02;;;;;;;153.97;52.13;;;;;;;2.89;81.67;99386.80;2171643;81;20944;-82
2021/10/29 05:32:03;;;;;;;128.73;49.70;;;;;;;2.82;81.65;99380.45;2171718;81;21028;-81
2021/10/29 05:35:03;;;;;;;81.17;45.33;;;;;;;2.84;81.75;99381.81;2171783;81;20988;-82
2021/10/29 05:38:04;;;;;;;76.83;47.60;;;;;;;2.82;81.42;99384.72;2171983;81;20945;-81
2021/10/29 05:41:04;;;;;;;64.97;43.67;;;;;;;2.76;81.50;99384.00;2172897;81;21427;-82
2021/10/29 05:44:05;;;;;;;66.30;44.57;;;;;;;2.72;81.56;99381.19;2171881;81;20989;-82
2021/10/29 05:47:06;;;;;;;76.07;43.83;;;;;;;2.69;81.29;99390.94;2171596;81;20924;-82
2021/10/29 05:50:09;;;;;;;71.87;46.20;;;;;;;2.68;81.32;99396.02;2171990;82;20956;-80
2021/10/29 05:53:18;;;;;;;84.00;48.07;;;;;;;2.68;81.50;99392.16;2171662;81;21014;-81
2021/10/29 05:56:11;;;;;;;68.90;42.97;;;;;;;2.74;81.76;99393.35;2170573;81;21301;-81
2021/10/29 05:59:12;;;;;;;66.87;45.37;;;;;;;2.77;81.41;99392.22;2170847;81;20995;-83
2021/10/29 06:02:12;;;;;;;69.97;43.87;;;;;;;2.77;81.38;99401.64;2170903;81;21008;-82
2021/10/29 06:05:13;;;;;;;63.83;43.80;;;;;;;2.81;81.51;99393.26;2170563;81;20948;-83
2021/10/29 06:08:13;;;;;;;78.17;45.50;;;;;;;2.80;81.28;99399.22;2171195;81;21621;-82
2021/10/29 06:11:14;;;;;;;77.10;47.03;;;;;;;2.86;81.45;99399.53;2170631;81;20999;-80
2021/10/29 06:14:15;;;;;;;75.03;47.33;;;;;;;2.93;81.69;99396.45;2171348;81;21072;-82
2021/10/29 06:17:19;;;;;;;67.73;45.43;;;;;;;3.04;81.68;99396.59;2170819;82;20997;-82
2021/10/29 06:20:18;;;;;;;336.13;63.40;;;;;;;3.17;81.90;99400.67;2169579;81;21439;-81
2021/10/29 06:23:22;;;;;;;80.73;45.63;;;;;;;3.29;81.77;99395.22;2169348;81;20952;-83
2021/10/29 06:26:24;;;;;;;73.67;43.97;;;;;;;3.39;81.45;99394.86;2168814;81;21028;-85
2021/10/29 06:29:24;;;;;;;75.57;44.47;;;;;;;3.48;81.39;99401.39;2169155;81;21012;-84
2021/10/29 06:32:24;;;;;;;75.27;44.47;;;;;;;3.60;81.22;99401.50;2169125;81;21455;-83
2021/10/29 06:35:25;;;;;;;90.33;47.07;;;;;;;3.69;81.19;99405.41;2169295;81;21691;-83
2021/10/29 06:38:30;;;;;;;99.63;47.00;;;;;;;3.79;81.17;99405.44;2155487;83;20953;-83
2021/10/29 06:41:31;;;;;;;86.47;47.10;;;;;;;3.92;81.36;99405.20;2166952;82;20948;-81
2021/10/29 06:48:32;;;;;;;73.77;46.73;;;;;;;4.15;81.08;99411.02;2161727;82;21036;-83
2021/10/29 07:04:09;;;;;;;68.73;45.20;;;;;;;4.98;80.39;99429.84;2160344;82;20921;-81
2021/10/29 07:43:03;;;;;;;54.03;39.70;;;;;;;7.17;77.11;99415.98;2160144;82;20932;-83
2021/10/29 07:46:02;;;;;;;58.10;39.33;;;;;;;7.24;76.77;99417.55;2168542;81;21012;-81
2021/10/29 07:49:06;;;;;;;57.93;39.90;;;;;;;7.33;76.42;99415.67;2168975;82;20925;-81
2021/10/29 07:52:06;;;;;;;78.93;40.87;;;;;;;7.45;76.29;99416.08;2169880;81;20956;-82
2021/10/29 07:55:07;;;;;;;60.20;38.77;;;;;;;7.60;76.35;99419.59;2169446;81;20949;-82
2021/10/29 07:58:08;;;;;;;57.23;39.57;;;;;;;7.79;75.86;99417.17;2169438;81;20969;-81
2021/10/29 08:01:08;;;;;;;56.63;39.37;;;;;;;7.99;75.81;99420.91;2169922;81;21020;-81
2021/10/29 08:04:09;;;;;;;56.10;37.70;;;;;;;8.17;74.97;99420.58;2169806;82;21003;-82
2021/10/29 08:07:10;;;;;;;952.70;113.03;;;;;;;8.34;74.81;99424.14;2168929;81;20984;-82
2021/10/29 08:10:12;;;;;;;55.83;37.73;;;;;;;8.50;74.43;99419.85;2169393;82;21357;-80
2021/10/29 08:13:12;;;;;;;81.90;37.90;;;;;;;8.73;74.24;99424.03;2168589;82;21000;-80
2021/10/29 08:16:13;;;;;;;48.97;33.50;;;;;;;8.94;73.76;99424.63;2168448;81;20929;-81
2021/10/29 08:19:15;;;;;;;55.47;37.00;;;;;;;9.08;72.59;99424.11;2169860;81;21004;-82
2021/10/29 08:22:16;;;;;;;63.43;36.20;;;;;;;9.15;72.37;99414.32;2170423;81;21004;-80
2021/10/29 08:25:17;;;;;;;53.67;35.97;;;;;;;9.28;71.84;99415.52;2171720;81;21000;-83
2021/10/29 08:28:23;;;;;;;58.33;36.27;;;;;;;9.44;71.89;99411.16;2171953;81;20984;-80
2021/10/29 08:31:24;;;;;;;52.20;34.97;;;;;;;9.56;71.21;99408.48;2171071;81;20956;-81
2021/10/29 08:34:25;;;;;;;51.97;34.57;;;;;;;9.72;70.67;99404.94;2171510;81;20997;-82
2021/10/29 08:37:29;;;;;;;53.97;34.60;;;;;;;9.85;70.15;99405.69;2171418;81;21055;-79
2021/10/29 08:40:28;;;;;;;49.00;33.07;;;;;;;9.97;70.02;99398.16;2171105;81;21016;-81
2021/10/29 08:43:28;;;;;;;58.60;34.90;;;;;;;10.08;69.77;99397.97;2171195;81;20972;-79
2021/10/29 08:46:29;;;;;;;183.73;43.60;;;;;;;10.17;68.80;99398.17;2170803;81;21387;-80
2021/10/29 08:49:30;;;;;;;44.80;32.07;;;;;;;10.32;69.17;99395.47;2171082;82;20960;-81
2021/10/29 08:52:31;;;;;;;43.00;31.33;;;;;;;10.47;68.28;99391.92;2170569;82;21007;-81
2021/10/29 08:55:34;;;;;;;48.37;31.73;;;;;;;10.53;68.21;99388.12;2170955;82;20973;-81
2021/10/29 08:58:36;;;;;;;47.63;31.80;;;;;;;10.68;68.32;99392.36;2171530;81;21408;-80
2021/10/29 09:01:36;;;;;;;45.70;31.90;;;;;;;10.87;67.82;99387.07;2171686;81;21004;-81
2021/10/29 09:04:49;;;;;;;52.23;32.03;;;;;;;11.01;67.66;99386.91;2172391;81;20988;-79
2021/10/29 09:08:01;;;;;;;52.75;27.65;;;;;;;11.16;67.38;99385.88;2171610;81;21001;-79
2021/10/29 09:33:42;;;;;;;45.50;30.40;;;;;;;12.81;62.09;99390.14;2171024;82;20988;-81
2021/10/29 09:36:43;;;;;;;62.98;31.82;;;;;;;12.83;62.56;99391.05;2171754;81;20972;-80
2021/10/29 09:39:43;;;;;;;57.43;30.72;;;;;;;12.91;62.52;99385.45;2171984;81;20960;-83
2021/10/29 09:42:44;;;;;;;43.23;29.65;;;;;;;12.96;62.21;99387.70;2171497;81;20956;-80
2021/10/29 09:45:48;;;;;;;46.23;30.60;;;;;;;12.97;61.67;99382.91;2170980;81;20921;-81
2021/10/29 09:48:50;;;;;;;39.33;28.75;;;;;;;12.97;61.50;99377.66;2171773;81;21032;-81
2021/10/29 09:51:53;;;;;;;40.17;30.55;;;;;;;13.01;61.44;99379.05;2171344;81;20968;-81
2021/10/29 09:57:53;;;;;;;38.23;28.00;;;;;;;13.06;60.63;99379.10;2161333;82;20953;-80
2021/10/29 10:00:54;;;;;;;40.80;28.23;;;;;;;13.10;60.48;99378.70;2171529;81;21063;-81
2021/10/29 10:03:55;;;;;;;38.50;27.58;;;;;;;13.15;60.82;99383.13;2171122;81;20992;-82
2021/10/29 10:06:55;;;;;;;48.25;28.42;;;;;;;13.23;59.97;99377.56;2171097;81;20957;-82
2021/10/29 10:09:59;;;;;;;41.08;26.30;;;;;;;13.27;59.91;99379.34;2170444;81;20980;-79
2021/10/29 10:12:59;;;;;;;41.95;27.82;;;;;;;13.30;59.97;99374.13;2170433;81;21079;-80
2021/10/29 10:16:02;;;;;;;41.88;28.02;;;;;;;13.36;59.76;99371.56;2171593;81;20980;-82
2021/10/29 10:19:02;;;;;;;39.42;26.07;;;;;;;13.42;60.06;99366.81;2171010;82;21068;-80
2021/10/29 10:22:05;;;;;;;117.70;31.35;;;;;;;13.54;59.36;99368.66;2170065;81;20953;-81
2021/10/29 10:25:09;;;;;;;41.88;27.32;;;;;;;13.54;58.95;99368.66;2170109;81;21079;-81
2021/10/29 10:47:37;;;;;;;27.87;22.58;;;;;;;13.92;58.09;99348.86;2159757;82;20917;-82
2021/10/29 10:50:42;;;;;;;35.30;22.62;;;;;;;14.08;57.38;99345.89;2168286;81;20941;-79
2021/10/29 10:53:44;;;;;;;32.28;22.93;;;;;;;14.18;56.83;99349.45;2167646;81;21031;-81
2021/10/29 10:56:48;;;;;;;29.98;21.95;;;;;;;14.22;56.44;99344.66;2168854;81;20948;-82
2021/10/29 11:06:27;;;;;;;32.23;23.73;;;;;;;14.46;56.07;99332.98;2160406;82;20937;-79
2021/10/29 11:12:27;;;;;;;38.23;25.55;;;;;;;14.57;55.88;99320.77;2168343;82;20980;-83
2021/10/29 11:15:27;;;;;;;37.58;24.10;;;;;;;14.65;55.60;99319.47;2168594;82;21395;-81
2021/10/29 11:18:35;;;;;;;39.90;24.90;;;;;;;14.70;53.30;99316.86;2169281;81;21019;-82
2021/10/29 11:21:37;;;;;;;31.68;22.48;;;;;;;14.75;55.17;99321.72;2169122;81;20953;-81
2021/10/29 11:24:38;;;;;;;31.45;21.85;;;;;;;14.76;55.07;99319.09;2169619;81;21027;-81
2021/10/29 11:27:41;;;;;;;32.35;23.70;;;;;;;14.75;53.12;99321.28;2168926;81;21489;-82
2021/10/29 11:30:41;;;;;;;31.77;22.67;;;;;;;14.68;54.08;99316.85;2169333;81;21347;-80
2021/10/29 11:33:41;;;;;;;27.10;20.45;;;;;;;14.72;53.11;99312.05;2168996;81;20953;-80
2021/10/29 11:36:42;;;;;;;39.73;22.93;;;;;;;14.76;53.57;99311.22;2169076;81;20976;-81
2021/10/29 11:39:42;;;;;;;35.33;23.62;;;;;;;14.79;53.39;99311.66;2169334;82;21352;-80
2021/10/29 11:42:43;;;;;;;40.95;23.85;;;;;;;14.77;52.22;99302.45;2170074;81;20988;-81
2021/10/29 11:45:43;;;;;;;35.98;22.37;;;;;;;14.74;52.97;99295.88;2170511;81;20988;-81
2021/10/29 11:48:44;;;;;;;26.85;20.17;;;;;;;14.78;53.06;99297.64;2170497;81;21266;-80
2021/10/29 11:51:45;;;;;;;26.97;20.62;;;;;;;14.81;52.72;99287.58;2169639;81;20960;-82
2021/10/29 11:54:49;;;;;;;23.60;18.12;;;;;;;14.81;52.43;99284.95;2169707;81;21004;-83
2021/10/29 11:57:54;;;;;;;43.30;19.80;;;;;;;14.83;51.04;99278.81;2169237;81;20968;-80
2021/10/29 12:10:19;;;;;;;34.38;18.32;;;;;;;14.97;51.36;99278.83;2160218;82;20941;-81
2021/10/29 12:13:20;;;;;;;22.75;16.05;;;;;;;15.05;51.27;99275.77;2168559;82;20980;-80
2021/10/29 12:16:24;;;;;;;29.65;16.87;;;;;;;15.07;50.49;99277.97;2168515;81;20967;-80
2021/10/29 12:19:24;;;;;;;50.95;18.67;;;;;;;15.07;49.45;99283.22;2168043;81;21431;-80
2021/10/29 12:28:38;;;;;;;22.42;17.07;;;;;;;15.09;49.50;99273.59;2159714;82;21052;-81
2021/10/29 12:32:08;;;;;;;32.00;16.50;;;;;;;15.10;49.91;99271.84;2168244;81;21054;-81
2021/10/29 12:38:28;;;;;;;24.70;17.50;;;;;;;15.09;49.88;99267.02;2168339;82;21348;-80
2021/10/29 13:03:58;;;;;;;20.52;14.85;;;;;;;15.24;50.15;99236.77;2167290;82;21004;-81
2021/10/29 13:06:58;;;;;;;40.45;16.45;;;;;;;15.22;49.75;99235.02;2167657;81;21434;-81
2021/10/29 13:09:59;;;;;;;31.93;15.15;;;;;;;15.22;49.45;99232.39;2168365;81;20969;-82
2021/10/29 13:13:10;;;;;;;21.97;14.83;;;;;;;15.18;49.28;99221.44;2169443;81;21007;-80
2021/10/29 13:16:10;;;;;;;20.10;14.53;;;;;;;15.12;48.77;99216.19;2168076;81;20949;-80
2021/10/29 13:19:20;;;;;;;20.43;15.03;;;;;;;15.09;48.79;99221.44;2169437;81;21023;-80
2021/10/29 13:28:57;;;;;;;16.87;13.10;;;;;;;15.06;49.83;99213.11;2160964;82;21722;-81
2021/10/29 13:35:25;;;;;;;20.12;14.20;;;;;;;15.02;50.00;99215.31;2170849;82;21035;-81
2021/10/29 13:50:10;;;;;;;26.50;13.70;;;;;;;15.02;49.81;99217.06;2169675;81;20984;-82
2021/10/29 13:51:33;;;;;;;15.90;11.70;;;;;;;14.96;50.48;99219.25;2170714;82;21028;-82
2021/10/29 13:54:47;;;;;;;32.67;14.78;;;;;;;14.89;50.87;99209.61;2169794;81;21060;-81
2021/10/29 14:30:27;;;;;;;16.35;12.15;;;;;;;13.96;51.23;99196.22;2170234;82;21044;-84
2021/10/29 14:33:31;;;;;;;20.72;13.20;;;;;;;13.86;51.35;99195.27;2168940;81;21019;-83
2021/10/29 14:36:40;;;;;;;18.02;13.78;;;;;;;13.73;51.50;99194.78;2169584;81;20967;-82
2021/10/29 14:39:49;;;;;;;22.25;12.98;;;;;;;13.62;51.68;99187.30;2169248;81;21114;-83
2021/10/29 14:42:47;;;;;;;18.42;13.15;;;;;;;13.49;51.94;99186.35;2169189;81;21004;-84
2021/10/29 14:49:06;;;;;;;18.35;12.58;;;;;;;13.24;52.52;99185.77;2162018;82;20944;-83
2021/10/29 15:02:14;;;;;;;20.80;12.90;;;;;;;12.98;55.01;99182.45;2171342;82;21004;-83
2021/10/29 15:27:41;;;;;;;26.37;12.27;;;;;;;10.93;59.08;99192.59;2172394;82;21035;-82
2021/10/29 15:43:50;;;;;;;127.83;19.20;;;;;;;9.58;61.66;99188.28;2173017;82;21039;-82
2021/10/29 15:46:45;;;;;;;99.20;19.60;;;;;;;9.38;62.24;99193.45;2171889;81;20980;-78
2021/10/29 15:49:45;;;;;;;25.23;12.90;;;;;;;9.19;62.67;99189.56;2172414;81;20972;-82
2021/10/29 15:52:51;;;;;;;18.43;13.57;;;;;;;9.05;63.11;99194.88;2172418;81;21482;-82
2021/10/29 15:55:52;;;;;;;20.23;12.70;;;;;;;8.88;63.70;99194.06;2172417;81;20975;-83
2021/10/29 15:59:00;;;;;;;17.47;11.90;;;;;;;8.72;64.20;99186.72;2173031;81;20949;-82
2021/10/29 16:18:14;;;;;;;20.10;12.17;;;;;;;7.83;66.57;99189.06;2172922;82;20979;-82
2021/10/29 16:21:14;;;;;;;17.90;12.53;;;;;;;7.63;66.71;99190.64;2171172;81;21380;-82
2021/10/29 16:24:15;;;;;;;31.90;14.83;;;;;;;7.52;67.43;99186.86;2169387;82;20949;-84
2021/10/29 16:27:16;;;;;;;23.57;13.00;;;;;;;7.43;67.88;99194.38;2169577;81;20925;-82
2021/10/29 16:30:17;;;;;;;22.77;12.50;;;;;;;7.34;68.03;99188.91;2169327;82;21366;-82
2021/10/29 16:33:39;;;;;;;24.70;13.63;;;;;;;7.18;67.54;99187.98;2169133;81;20990;-82
2021/10/29 16:36:20;;;;;;;30.53;15.27;;;;;;;7.06;68.16;99187.61;2168618;82;21001;-82
2021/10/29 16:39:21;;;;;;;23.63;12.87;;;;;;;7.01;68.91;99188.76;2169581;81;20977;-82
2021/10/29 16:42:21;;;;;;;23.40;12.20;;;;;;;6.93;68.70;99192.37;2169357;81;20987;-82
2021/10/29 16:45:22;;;;;;;18.40;13.40;;;;;;;6.83;68.36;99191.63;2170043;81;21017;-81
2021/10/29 16:48:24;;;;;;;21.43;14.03;;;;;;;6.71;68.85;99198.59;2170164;81;20965;-82
2021/10/29 16:51:25;;;;;;;24.43;14.47;;;;;;;6.63;69.44;99193.98;2170387;81;21404;-83
2021/10/29 16:54:25;;;;;;;23.40;13.80;;;;;;;6.56;69.63;99184.23;2170688;81;20984;-80
2021/10/29 16:57:26;;;;;;;26.30;14.27;;;;;;;6.48;69.66;99191.77;2169160;81;20948;-80
2021/10/29 17:00:26;;;;;;;23.57;15.27;;;;;;;6.43;69.71;99189.85;2170184;82;20985;-82
2021/10/29 17:03:27;;;;;;;25.27;16.30;;;;;;;6.36;69.36;99188.77;2168796;82;21411;-82
2021/10/29 17:06:27;;;;;;;28.33;17.20;;;;;;;6.21;68.81;99190.84;2169270;81;21688;-84
2021/10/29 17:09:28;;;;;;;26.50;16.20;;;;;;;6.10;69.87;99191.76;2168909;81;20976;-82
2021/10/29 17:12:29;;;;;;;35.63;16.07;;;;;;;6.09;70.55;99193.00;2168993;81;20977;-82
2021/10/29 17:15:29;;;;;;;32.20;15.37;;;;;;;6.04;70.72;99188.92;2169233;81;20949;-82
2021/10/29 17:18:30;;;;;;;23.70;14.67;;;;;;;6.01;70.87;99183.22;2169584;81;20953;-81
2021/10/29 17:21:30;;;;;;;28.53;16.83;;;;;;;5.97;71.19;99179.17;2169450;81;21181;-82
2021/10/29 17:24:31;;;;;;;25.47;15.67;;;;;;;5.93;70.96;99183.36;2170003;81;20920;-81
2021/10/29 17:27:31;;;;;;;28.27;16.87;;;;;;;5.84;71.56;99176.52;2170451;81;21393;-82
2021/10/29 17:30:32;;;;;;;47.77;20.10;;;;;;;5.80;71.95;99181.54;2170078;81;21328;-82
2021/10/29 17:33:33;;;;;;;121.93;56.17;;;;;;;5.84;72.73;99184.30;2169962;81;21003;-80
2021/10/29 17:36:33;;;;;;;130.63;61.37;;;;;;;5.90;73.26;99185.84;2170397;82;20999;-81
2021/10/29 17:39:34;;;;;;;110.43;50.77;;;;;;;5.97;73.40;99186.53;2170474;81;20984;-82
2021/10/29 17:42:36;;;;;;;73.80;34.10;;;;;;;6.04;73.40;99186.33;2170565;81;20984;-83
2021/10/29 17:45:36;;;;;;;116.23;56.80;;;;;;;6.01;72.68;99183.22;2170246;81;21514;-81
2021/10/29 17:48:37;;;;;;;111.83;52.63;;;;;;;5.86;72.62;99180.46;2169747;81;21000;-83
2021/10/29 17:51:38;;;;;;;119.30;47.93;;;;;;;5.75;72.67;99186.14;2169746;82;20956;-81
2021/10/29 17:54:42;;;;;;;81.93;40.20;;;;;;;5.62;72.69;99179.17;2169763;81;20987;-81
2021/10/29 17:57:43;;;;;;;71.72;36.98;;;;;;;5.51;72.83;99183.07;2169585;81;20997;-81
2021/10/29 18:00:46;;;;;;;72.07;31.90;;;;;;;5.42;73.26;99179.73;2170277;81;20917;-81
2021/10/29 18:03:46;;;;;;;51.57;27.90;;;;;;;5.39;73.41;99174.44;2170014;81;21060;-81
2021/10/29 18:06:46;;;;;;;43.83;24.30;;;;;;;5.38;73.56;99175.27;2169965;81;21325;-81
2021/10/29 18:09:47;;;;;;;39.67;23.80;;;;;;;5.43;73.77;99175.02;2169530;81;20969;-81
2021/10/29 18:12:47;;;;;;;40.53;22.07;;;;;;;5.58;74.45;99176.00;2170480;81;21012;-81
2021/10/29 18:15:49;;;;;;;48.87;24.17;;;;;;;5.76;74.27;99177.55;2170464;82;20996;-80
2021/10/29 18:18:50;;;;;;;46.13;23.47;;;;;;;5.97;74.57;99175.28;2170774;81;21000;-81
2021/10/29 18:21:50;;;;;;;40.47;22.53;;;;;;;6.17;73.87;99174.30;2170945;81;21000;-82
2021/10/29 18:24:51;;;;;;;36.53;21.97;;;;;;;6.28;73.82;99179.43;2170873;81;20958;-81
2021/10/29 18:27:51;;;;;;;39.73;23.27;;;;;;;6.42;73.40;99179.02;2170196;82;20996;-80